createdAt,value
2023-01-19T00:00:51.996Z,94994.94
2023-01-19T00:03:18.838Z,94993.25
2023-01-19T00:05:46.453Z,95005.88
2023-01-19T00:08:15.917Z,95021.84
2023-01-19T00:10:44.781Z,95018.47
2023-01-19T00:13:11.488Z,95009.78
2023-01-19T00:15:38.458Z,95018.75
2023-01-19T00:18:05.376Z,95026.59
2023-01-19T00:20:32.873Z,95017.22
2023-01-19T00:22:59.990Z,95019.75
2023-01-19T00:25:26.960Z,95034.84
2023-01-19T00:27:53.543Z,95021.94
2023-01-19T00:30:20.271Z,95034.00
2023-01-19T00:32:46.881Z,95038.50
2023-01-19T00:35:13.477Z,95039.03
2023-01-19T00:37:40.045Z,95041.25
2023-01-19T00:40:07.520Z,95044.88
2023-01-19T00:42:45.857Z,95043.09
2023-01-19T00:45:15.093Z,95046.72
2023-01-19T00:47:42.373Z,95029.09
2023-01-19T00:50:13.002Z,95045.88
2023-01-19T00:52:40.858Z,95054.00
2023-01-19T00:55:08.661Z,95053.16
2023-01-19T00:57:35.290Z,95049.94
2023-01-19T01:00:02.109Z,95054.00
2023-01-19T01:02:29.321Z,95055.81
2023-01-19T01:04:56.713Z,95056.78
2023-01-19T01:07:24.786Z,95055.94
2023-01-19T01:09:51.491Z,95056.78
2023-01-19T01:12:18.207Z,95047.97
2023-01-19T01:14:44.952Z,95059.59
2023-01-19T01:17:14.261Z,95063.38
2023-01-19T01:19:41.463Z,95053.97
2023-01-19T01:22:09.730Z,95060.72
2023-01-19T01:24:36.452Z,95057.22
2023-01-19T01:27:03.923Z,95067.03
2023-01-19T01:29:30.667Z,95070.66
2023-01-19T01:31:57.363Z,95065.47
2023-01-19T01:34:23.992Z,95064.50
2023-01-19T01:36:51.408Z,95070.78
2023-01-19T01:39:17.945Z,95069.13
2023-01-19T01:41:44.591Z,95077.09
2023-01-19T01:44:52.930Z,95075.41
2023-01-19T01:47:33.452Z,95084.38
2023-01-19T01:50:17.138Z,95085.19
2023-01-19T01:53:07.149Z,95081.72
2023-01-19T01:55:36.551Z,95088.69
2023-01-19T01:58:04.786Z,95088.84
2023-01-19T02:00:50.824Z,95091.34
2023-01-19T02:03:17.705Z,95091.34
2023-01-19T02:05:45.857Z,95100.31
2023-01-19T02:08:44.558Z,95102.28
2023-01-19T02:11:29.740Z,95096.53
2023-01-19T02:13:56.422Z,95108.31
2023-01-19T02:16:23.537Z,95104.66
2023-01-19T02:18:50.419Z,95108.19
2023-01-19T02:21:22.649Z,95109.97
2023-01-19T02:23:54.057Z,95108.19
2023-01-19T02:26:25.994Z,95117.69
2023-01-19T02:28:57.512Z,95126.38
2023-01-19T02:31:24.979Z,95120.91
2023-01-19T02:33:52.747Z,95126.81
2023-01-19T02:36:23.369Z,95119.53
2023-01-19T02:38:51.043Z,95123.16
2023-01-19T02:41:20.472Z,95138.59
2023-01-19T02:43:49.062Z,95146.31
2023-01-19T02:46:16.117Z,95140.16
2023-01-19T02:48:42.858Z,95156.41
2023-01-19T02:51:14.540Z,95157.94
2023-01-19T02:54:20.189Z,95153.19
2023-01-19T02:56:55.750Z,95154.59
2023-01-19T02:59:31.345Z,95155.16
2023-01-19T03:02:25.467Z,95161.88
2023-01-19T03:05:29.653Z,95155.72
2023-01-19T03:08:14.713Z,95148.31
2023-01-19T03:10:46.638Z,95159.38
2023-01-19T03:13:19.956Z,95158.25
2023-01-19T03:15:51.167Z,95163.28
2023-01-19T03:18:20.888Z,95162.19
2023-01-19T03:20:49.618Z,95164.56
2023-01-19T03:23:17.236Z,95164.28
2023-01-19T03:25:47.470Z,95160.50
2023-01-19T03:28:15.082Z,95162.03
2023-01-19T03:30:48.234Z,95160.94
2023-01-19T03:33:18.337Z,95165.81
2023-01-19T03:35:49.089Z,95158.53
2023-01-19T03:38:17.247Z,95166.25
2023-01-19T03:40:45.159Z,95166.94
2023-01-19T03:43:13.297Z,95161.50
2023-01-19T03:45:40.225Z,95171.88
2023-01-19T03:48:07.244Z,95176.94
2023-01-19T03:50:33.897Z,95169.78
2023-01-19T03:53:12.998Z,95173.84
2023-01-19T03:55:42.624Z,95173.56
2023-01-19T03:58:09.877Z,95165.72
2023-01-19T04:00:36.916Z,95170.59
2023-01-19T04:03:05.175Z,95170.31
2023-01-19T04:05:32.351Z,95176.34
2023-01-19T04:07:59.358Z,95176.06
2023-01-19T04:10:26.045Z,95172.28
2023-01-19T04:13:01.299Z,95185.16
2023-01-19T04:15:29.450Z,95191.06
2023-01-19T04:18:00.421Z,95190.91
2023-01-19T04:20:28.257Z,95195.94
2023-01-19T04:22:56.181Z,95189.50
2023-01-19T04:25:22.859Z,95192.00
2023-01-19T04:27:52.950Z,95189.06
2023-01-19T04:30:20.016Z,95186.84
2023-01-19T04:32:46.809Z,95195.94
2023-01-19T04:35:13.401Z,95200.84
2023-01-19T04:37:40.169Z,95187.53
2023-01-19T04:40:07.539Z,95200.53
2023-01-19T04:42:34.149Z,95195.91
2023-01-19T04:45:00.750Z,95189.59
2023-01-19T04:47:27.442Z,95187.63
2023-01-19T04:49:53.990Z,95192.81
2023-01-19T04:52:20.518Z,95199.81
2023-01-19T04:54:47.650Z,95202.34
2023-01-19T04:57:14.251Z,95206.84
2023-01-19T04:59:40.897Z,95227.25
2023-01-19T05:02:07.571Z,95199.31
2023-01-19T05:04:34.262Z,95193.97
2023-01-19T05:07:00.842Z,95189.19
2023-01-19T05:09:27.575Z,95186.25
2023-01-19T05:11:54.132Z,95189.31
2023-01-19T05:14:20.820Z,95196.03
2023-01-19T05:16:47.339Z,95194.19
2023-01-19T05:19:14.075Z,95200.47
2023-01-19T05:21:41.139Z,95193.31
2023-01-19T05:24:08.509Z,95214.31
2023-01-19T05:26:35.183Z,95208.00
2023-01-19T05:29:01.791Z,95211.47
2023-01-19T05:31:28.539Z,95218.75
2023-01-19T05:33:55.172Z,95224.47
2023-01-19T05:36:21.688Z,95227.38
2023-01-19T05:38:48.442Z,95233.81
2023-01-19T05:41:15.166Z,95235.88
2023-01-19T05:43:41.856Z,95230.91
2023-01-19T05:46:08.488Z,95233.97
2023-01-19T05:48:36.189Z,95242.06
2023-01-19T05:51:02.720Z,95244.28
2023-01-19T05:53:29.319Z,95248.34
2023-01-19T05:56:05.088Z,95249.56
2023-01-19T05:58:32.511Z,95238.44
2023-01-19T06:01:02.987Z,95245.97
2023-01-19T06:03:29.625Z,95250.88
2023-01-19T06:05:57.925Z,95255.59
2023-01-19T06:08:24.572Z,95258.81
2023-01-19T06:10:51.904Z,95266.22
2023-01-19T06:13:18.588Z,95284.16
2023-01-19T06:15:45.225Z,95280.03
2023-01-19T06:18:12.660Z,95286.44
2023-01-19T06:20:39.442Z,95295.69
2023-01-19T06:23:06.426Z,95298.72
2023-01-19T06:25:33.085Z,95302.78
2023-01-19T06:27:59.777Z,95306.84
2023-01-19T06:30:26.988Z,95312.59
2023-01-19T06:32:53.809Z,95309.03
2023-01-19T06:35:20.857Z,95313.81
2023-01-19T06:37:47.426Z,95323.72
2023-01-19T06:40:14.599Z,95314.31
2023-01-19T06:42:42.143Z,95329.59
2023-01-19T06:45:10.043Z,95339.16
2023-01-19T06:47:37.011Z,95342.81
2023-01-19T06:50:03.697Z,95341.66
2023-01-19T06:52:30.584Z,95342.50
2023-01-19T06:54:57.394Z,95337.59
2023-01-19T06:57:25.768Z,95335.13
2023-01-19T06:59:52.572Z,95335.41
2023-01-19T07:02:26.154Z,95334.88
2023-01-19T07:04:55.033Z,95336.03
2023-01-19T07:07:21.783Z,95329.31
2023-01-19T07:09:48.704Z,95336.66
2023-01-19T07:12:15.303Z,95337.78
2023-01-19T07:14:42.406Z,95334.72
2023-01-19T07:17:09.770Z,95337.25
2023-01-19T07:19:36.566Z,95343.47
2023-01-19T07:22:03.197Z,95335.78
2023-01-19T07:24:30.718Z,95323.28
2023-01-19T07:26:57.489Z,95314.03
2023-01-19T07:29:25.449Z,95313.56
2023-01-19T07:31:54.941Z,95306.19
2023-01-19T07:34:21.602Z,95307.94
2023-01-19T07:36:48.651Z,95314.16
2023-01-19T07:39:15.267Z,95322.09
2023-01-19T07:41:41.816Z,95317.63
2023-01-19T07:44:08.782Z,95320.88
2023-01-19T07:46:53.640Z,95322.47
2023-01-19T07:49:39.446Z,95327.53
2023-01-19T07:52:24.496Z,95337.78
2023-01-19T07:55:09.799Z,95341.75
2023-01-19T07:57:54.683Z,95334.88
2023-01-19T08:00:39.975Z,95329.94
2023-01-19T08:03:25.488Z,95339.09
2023-01-19T08:06:24.196Z,95332.50
2023-01-19T08:09:09.997Z,95337.47
2023-01-19T08:11:55.199Z,95329.88
2023-01-19T08:14:40.608Z,95332.16
2023-01-19T08:17:25.548Z,95331.72
2023-01-19T08:20:11.384Z,95341.00
2023-01-19T08:23:00.205Z,95336.25
2023-01-19T08:25:46.278Z,95335.38
2023-01-19T08:28:31.376Z,95343.53
2023-01-19T08:31:21.196Z,95344.50
2023-01-19T08:34:08.611Z,95342.97
2023-01-19T08:36:53.584Z,95335.38
2023-01-19T08:39:38.653Z,95333.84
2023-01-19T08:42:23.509Z,95327.53
2023-01-19T08:45:09.401Z,95335.09
2023-01-19T08:47:55.863Z,95339.88
2023-01-19T08:50:41.157Z,95342.66
2023-01-19T08:53:26.315Z,95347.47
2023-01-19T08:56:12.568Z,95352.81
2023-01-19T08:59:08.683Z,95350.13
2023-01-19T09:01:54.327Z,95352.81
2023-01-19T09:04:39.574Z,95352.81
2023-01-19T09:07:24.846Z,95358.97
2023-01-19T09:10:10.443Z,95356.44
2023-01-19T09:12:55.458Z,95362.47
2023-01-19T09:15:41.085Z,95362.75
2023-01-19T09:18:26.176Z,95365.56
2023-01-19T09:21:11.282Z,95374.41
2023-01-19T09:23:57.666Z,95372.72
2023-01-19T09:26:43.038Z,95372.00
2023-01-19T09:29:28.433Z,95368.63
2023-01-19T09:32:13.523Z,95363.47
2023-01-19T09:34:58.485Z,95373.44
2023-01-19T09:37:47.348Z,95378.06
2023-01-19T09:40:32.657Z,95376.34
2023-01-19T09:43:34.106Z,95377.19
2023-01-19T09:46:20.393Z,95374.66
2023-01-19T09:49:10.226Z,95372.00
2023-01-19T09:51:55.137Z,95371.28
2023-01-19T09:54:45.399Z,95367.78
2023-01-19T09:57:32.150Z,95369.75
2023-01-19T10:00:17.849Z,95359.09
2023-01-19T10:03:16.420Z,95358.25
2023-01-19T10:06:03.642Z,95353.06
2023-01-19T10:08:53.956Z,95350.53
2023-01-19T10:11:52.695Z,95347.16
2023-01-19T10:14:40.924Z,95353.50
2023-01-19T10:17:35.470Z,95352.63
2023-01-19T10:20:23.052Z,95349.97
2023-01-19T10:23:20.507Z,95345.63
2023-01-19T10:26:07.092Z,95350.25
2023-01-19T10:29:12.263Z,95352.91
2023-01-19T10:32:21.197Z,95344.22
2023-01-19T10:35:14.344Z,95349.56
2023-01-19T10:38:01.298Z,95350.53
2023-01-19T10:40:48.866Z,95345.31
2023-01-19T10:43:33.996Z,95343.53
2023-01-19T10:46:19.413Z,95347.97
2023-01-19T10:49:04.783Z,95348.84
2023-01-19T10:51:49.995Z,95344.34
2023-01-19T10:54:36.310Z,95347.16
2023-01-19T10:57:25.906Z,95338.47
2023-01-19T11:00:29.111Z,95336.78
2023-01-19T11:03:30.217Z,95337.75
2023-01-19T11:06:21.265Z,95340.41
2023-01-19T11:09:16.816Z,95346.19
2023-01-19T11:12:02.145Z,95338.59
2023-01-19T11:14:47.641Z,95346.31
2023-01-19T11:17:32.854Z,95350.66
2023-01-19T11:20:22.944Z,95353.31
2023-01-19T11:23:16.619Z,95348.16
2023-01-19T11:26:01.773Z,95349.13
2023-01-19T11:28:47.857Z,95355.59
2023-01-19T11:31:33.822Z,95352.34
2023-01-19T11:34:32.765Z,95343.66
2023-01-19T11:37:20.500Z,95343.91
2023-01-19T11:40:06.062Z,95337.75
2023-01-19T11:42:51.414Z,95329.91
2023-01-19T11:45:36.831Z,95327.38
2023-01-19T11:48:33.400Z,95323.16
2023-01-19T11:51:18.862Z,95323.16
2023-01-19T11:54:06.900Z,95312.09
2023-01-19T11:56:52.201Z,95305.50
2023-01-19T11:59:37.325Z,95308.28
2023-01-19T12:02:24.437Z,95304.78
2023-01-19T12:05:12.410Z,95300.31
2023-01-19T12:07:58.413Z,95303.78
2023-01-19T12:10:44.283Z,95303.78
2023-01-19T12:13:30.259Z,95302.84
2023-01-19T12:16:22.662Z,95306.47
2023-01-19T12:19:11.264Z,95300.16
2023-01-19T12:21:56.206Z,95301.13
2023-01-19T12:24:42.316Z,95293.28
2023-01-19T12:27:40.506Z,95300.31
2023-01-19T12:30:26.748Z,95300.44
2023-01-19T12:33:26.766Z,95300.44
2023-01-19T12:36:38.696Z,95304.94
2023-01-19T12:39:23.648Z,95301.44
2023-01-19T12:42:12.796Z,95294.28
2023-01-19T12:45:05.443Z,95293.44
2023-01-19T12:47:54.082Z,95290.88
2023-01-19T12:50:39.347Z,95287.50
2023-01-19T12:53:26.454Z,95290.16
2023-01-19T12:56:11.736Z,95290.16
2023-01-19T12:58:56.806Z,95287.50
2023-01-19T13:01:41.951Z,95287.63
2023-01-19T13:04:30.354Z,95294.66
2023-01-19T13:07:17.995Z,95288.59
2023-01-19T13:10:23.116Z,95288.59
2023-01-19T13:13:18.345Z,95285.25
2023-01-19T13:16:18.875Z,95285.25
2023-01-19T13:19:07.247Z,95281.03
2023-01-19T13:21:54.126Z,95283.00
2023-01-19T13:24:58.367Z,95278.66
2023-01-19T13:27:43.529Z,95280.47
2023-01-19T13:30:28.957Z,95290.28
2023-01-19T13:33:21.729Z,95276.41
2023-01-19T13:36:07.841Z,95276.13
2023-01-19T13:38:52.893Z,95273.72
2023-01-19T13:41:38.422Z,95280.88
2023-01-19T13:44:27.612Z,95285.38
2023-01-19T13:47:15.344Z,95281.84
2023-01-19T13:50:00.717Z,95284.50
2023-01-19T13:52:46.171Z,95286.19
2023-01-19T13:55:31.061Z,95291.41
2023-01-19T13:58:23.339Z,95292.22
2023-01-19T14:01:19.932Z,95299.38
2023-01-19T14:04:05.440Z,95289.69
2023-01-19T14:06:54.162Z,95283.97
2023-01-19T14:09:39.798Z,95279.16
2023-01-19T14:12:16.132Z,95289.97
2023-01-19T14:14:42.937Z,95286.44
2023-01-19T14:17:21.098Z,95297.09
2023-01-19T14:19:50.962Z,95297.94
2023-01-19T14:22:17.666Z,95299.63
2023-01-19T14:24:44.398Z,95298.78
2023-01-19T14:27:19.139Z,95300.59
2023-01-19T14:29:47.344Z,95284.06
2023-01-19T14:32:20.851Z,95293.13
2023-01-19T14:34:48.722Z,95289.78
2023-01-19T14:37:19.718Z,95297.63
2023-01-19T14:39:47.451Z,95298.63
2023-01-19T14:42:17.362Z,95296.78
2023-01-19T14:44:47.962Z,95304.78
2023-01-19T14:47:22.947Z,95300.41
2023-01-19T14:49:49.555Z,95297.75
2023-01-19T14:52:25.161Z,95298.47
2023-01-19T14:54:51.965Z,95297.63
2023-01-19T14:57:18.548Z,95303.78
2023-01-19T14:59:48.402Z,95314.44
2023-01-19T15:02:15.242Z,95313.47
2023-01-19T15:04:41.898Z,95311.66
2023-01-19T15:07:11.369Z,95310.81
2023-01-19T15:09:37.910Z,95315.31
2023-01-19T15:12:04.523Z,95318.78
2023-01-19T15:14:31.031Z,95309.97
2023-01-19T15:16:57.835Z,95320.63
2023-01-19T15:19:24.273Z,95309.13
2023-01-19T15:21:51.235Z,95318.09
2023-01-19T15:24:18.168Z,95320.63
2023-01-19T15:26:44.692Z,95323.41
2023-01-19T15:29:15.826Z,95314.44
2023-01-19T15:31:42.390Z,95317.09
2023-01-19T15:34:11.379Z,95316.38
2023-01-19T15:36:37.870Z,95321.72
2023-01-19T15:39:04.529Z,95318.22
2023-01-19T15:41:31.096Z,95319.22
2023-01-19T15:43:57.707Z,95323.53
2023-01-19T15:46:25.226Z,95327.19
2023-01-19T15:48:51.754Z,95334.31
2023-01-19T15:51:22.625Z,95331.66
2023-01-19T15:53:49.625Z,95331.66
2023-01-19T15:56:20.352Z,95336.13
2023-01-19T15:58:46.943Z,95340.63
2023-01-19T16:01:14.499Z,95333.59
2023-01-19T16:03:41.377Z,95340.75
2023-01-19T16:06:08.792Z,95341.59
2023-01-19T16:08:35.733Z,95339.94
2023-01-19T16:11:06.001Z,95329.28
2023-01-19T16:13:32.936Z,95339.22
2023-01-19T16:16:04.273Z,95344.41
2023-01-19T16:18:30.835Z,95341.88
2023-01-19T16:20:57.533Z,95341.00
2023-01-19T16:23:24.053Z,95343.66
2023-01-19T16:26:17.652Z,95334.84
2023-01-19T16:28:44.356Z,95341.00
2023-01-19T16:31:10.792Z,95350.81
2023-01-19T16:33:37.250Z,95346.63
2023-01-19T16:36:23.060Z,95337.34
2023-01-19T16:38:49.900Z,95340.53
2023-01-19T16:41:17.106Z,95341.66
2023-01-19T16:43:43.599Z,95335.47
2023-01-19T16:46:16.997Z,95339.97
2023-01-19T16:48:43.608Z,95336.47
2023-01-19T16:51:10.047Z,95345.28
2023-01-19T16:53:37.345Z,95341.78
2023-01-19T16:56:04.611Z,95346.00
2023-01-19T16:58:31.272Z,95344.03
2023-01-19T17:00:57.813Z,95346.56
2023-01-19T17:03:24.367Z,95353.56
2023-01-19T17:05:52.135Z,95351.78
2023-01-19T17:08:19.665Z,95347.28
2023-01-19T17:10:47.011Z,95347.28
2023-01-19T17:13:13.472Z,95339.19
2023-01-19T17:15:40.014Z,95348.00
2023-01-19T17:18:07.014Z,95348.94
2023-01-19T17:20:33.916Z,95351.50
2023-01-19T17:23:00.416Z,95354.16
2023-01-19T17:25:26.871Z,95353.31
2023-01-19T17:27:53.500Z,95351.50
2023-01-19T17:30:20.588Z,95358.50
2023-01-19T17:32:47.625Z,95362.00
2023-01-19T17:35:14.113Z,95357.69
2023-01-19T17:37:40.586Z,95356.69
2023-01-19T17:40:07.474Z,95361.03
2023-01-19T17:42:34.188Z,95356.56
2023-01-19T17:45:00.648Z,95359.94
2023-01-19T17:47:28.246Z,95363.53
2023-01-19T17:49:54.717Z,95368.75
2023-01-19T17:52:21.190Z,95364.13
2023-01-19T17:54:47.848Z,95370.16
2023-01-19T17:57:15.139Z,95366.41
2023-01-19T17:59:43.919Z,95369.63
2023-01-19T18:02:10.543Z,95376.22
2023-01-19T18:04:38.264Z,95375.84
2023-01-19T18:07:04.997Z,95380.19
2023-01-19T18:09:31.544Z,95385.25
2023-01-19T18:11:59.664Z,95380.63
2023-01-19T18:14:26.169Z,95391.88
2023-01-19T18:16:52.666Z,95388.78
2023-01-19T18:19:22.106Z,95384.31
2023-01-19T18:21:48.621Z,95381.50
2023-01-19T18:24:15.759Z,95386.72
2023-01-19T18:26:42.618Z,95385.59
2023-01-19T18:29:09.107Z,95392.31
2023-01-19T18:31:35.618Z,95392.91
2023-01-19T18:34:02.244Z,95392.78
2023-01-19T18:36:29.657Z,95397.81
2023-01-19T18:38:56.395Z,95396.72
2023-01-19T18:41:22.981Z,95392.09
2023-01-19T18:43:49.552Z,95392.84
2023-01-19T18:46:16.508Z,95396.19
2023-01-19T18:48:43.284Z,95402.22
2023-01-19T18:51:10.974Z,95401.81
2023-01-19T18:53:37.669Z,95399.84
2023-01-19T18:56:04.833Z,95405.06
2023-01-19T18:58:32.429Z,95405.50
2023-01-19T19:00:59.557Z,95405.06
2023-01-19T19:03:26.929Z,95401.44
2023-01-19T19:05:53.628Z,95408.31
2023-01-19T19:08:20.068Z,95399.19
2023-01-19T19:10:46.792Z,95401.72
2023-01-19T19:13:14.144Z,95403.25
2023-01-19T19:15:40.894Z,95398.63
2023-01-19T19:18:08.941Z,95401.03
2023-01-19T19:20:38.782Z,95404.28
2023-01-19T19:23:05.233Z,95410.31
2023-01-19T19:25:32.067Z,95399.50
2023-01-19T19:27:58.935Z,95410.03
2023-01-19T19:30:25.547Z,95407.22
2023-01-19T19:32:56.108Z,95414.94
2023-01-19T19:35:23.152Z,95409.47
2023-01-19T19:37:49.596Z,95419.84
2023-01-19T19:40:16.725Z,95413.44
2023-01-19T19:42:43.872Z,95409.63
2023-01-19T19:45:10.876Z,95413.00
2023-01-19T19:47:37.367Z,95416.38
2023-01-19T19:50:03.871Z,95414.41
2023-01-19T19:52:30.415Z,95415.41
2023-01-19T19:54:56.964Z,95410.75
2023-01-19T19:57:24.111Z,95412.44
2023-01-19T19:59:50.618Z,95415.78
2023-01-19T20:02:17.576Z,95420.03
2023-01-19T20:04:44.954Z,95426.06
2023-01-19T20:07:11.466Z,95423.28
2023-01-19T20:09:37.950Z,95421.31
2023-01-19T20:12:04.844Z,95424.66
2023-01-19T20:14:31.519Z,95421.03
2023-01-19T20:16:57.996Z,95424.53
2023-01-19T20:19:24.559Z,95416.41
2023-01-19T20:21:51.015Z,95426.94
2023-01-19T20:24:18.299Z,95431.13
2023-01-19T20:26:50.332Z,95429.16
2023-01-19T20:29:17.052Z,95432.41
2023-01-19T20:31:45.276Z,95432.28
2023-01-19T20:34:12.542Z,95427.75
2023-01-19T20:36:39.330Z,95424.25
2023-01-19T20:39:08.435Z,95419.91
2023-01-19T20:41:35.989Z,95428.72
2023-01-19T20:44:02.474Z,95423.25
2023-01-19T20:46:28.994Z,95428.47
2023-01-19T20:48:55.826Z,95416.97
2023-01-19T20:51:22.983Z,95419.50
2023-01-19T20:53:49.621Z,95417.53
2023-01-19T20:56:16.305Z,95424.53
2023-01-19T20:58:42.964Z,95426.06
2023-01-19T21:01:10.812Z,95421.59
2023-01-19T21:03:37.569Z,95423.97
2023-01-19T21:06:04.457Z,95428.31
2023-01-19T21:08:30.931Z,95423.00
2023-01-19T21:10:57.497Z,95429.03
2023-01-19T21:13:24.492Z,95422.84
2023-01-19T21:15:51.043Z,95426.34
2023-01-19T21:18:17.811Z,95422.69
2023-01-19T21:20:44.977Z,95423.56
2023-01-19T21:23:11.508Z,95424.13
2023-01-19T21:25:38.252Z,95434.47
2023-01-19T21:28:05.614Z,95432.66
2023-01-19T21:30:32.086Z,95433.50
2023-01-19T21:32:58.656Z,95424.50
2023-01-19T21:35:25.229Z,95430.53
2023-01-19T21:37:51.744Z,95422.41
2023-01-19T21:40:18.448Z,95425.75
2023-01-19T21:42:44.927Z,95423.09
2023-01-19T21:45:11.633Z,95428.44
2023-01-19T21:47:38.476Z,95424.78
2023-01-19T21:50:05.048Z,95427.47
2023-01-19T21:52:31.660Z,95438.13
2023-01-19T21:54:58.172Z,95440.81
2023-01-19T21:57:24.654Z,95440.94
2023-01-19T21:59:51.086Z,95435.75
2023-01-19T22:02:29.857Z,95436.72
2023-01-19T22:05:06.396Z,95440.38
2023-01-19T22:07:33.111Z,95441.34
2023-01-19T22:09:59.624Z,95442.34
2023-01-19T22:12:26.059Z,95445.16
2023-01-19T22:14:52.591Z,95443.63
2023-01-19T22:17:19.026Z,95444.59
2023-01-19T22:19:45.854Z,95442.22
2023-01-19T22:22:12.483Z,95452.03
2023-01-19T22:24:39.336Z,95447.00
2023-01-19T22:27:05.965Z,95446.31
2023-01-19T22:29:32.448Z,95447.41
2023-01-19T22:31:58.905Z,95447.41
2023-01-19T22:34:26.396Z,95453.03
2023-01-19T22:36:53.070Z,95452.34
2023-01-19T22:39:19.725Z,95450.81
2023-01-19T22:41:46.565Z,95447.41
2023-01-19T22:44:14.601Z,95452.03
2023-01-19T22:46:41.230Z,95451.34
2023-01-19T22:49:08.429Z,95455.84
2023-01-19T22:51:35.568Z,95457.81
2023-01-19T22:54:02.298Z,95456.16
2023-01-19T22:56:29.370Z,95458.94
2023-01-19T22:58:56.030Z,95461.03
2023-01-19T23:01:23.721Z,95455.84
2023-01-19T23:03:50.482Z,95455.13
2023-01-19T23:06:18.210Z,95446.44
2023-01-19T23:08:44.849Z,95447.28
2023-01-19T23:11:15.048Z,95446.69
2023-01-19T23:13:41.756Z,95444.19
2023-01-19T23:16:08.971Z,95442.59
2023-01-19T23:18:36.090Z,95443.59
2023-01-19T23:21:03.492Z,95438.41
2023-01-19T23:23:30.639Z,95440.38
2023-01-19T23:26:03.956Z,95436.84
2023-01-19T23:28:31.310Z,95436.16
2023-01-19T23:30:57.830Z,95427.47
2023-01-19T23:33:24.448Z,95428.56
2023-01-19T23:35:50.972Z,95435.72
2023-01-19T23:38:17.580Z,95434.19
2023-01-19T23:40:44.057Z,95437.81
2023-01-19T23:43:10.589Z,95443.28
2023-01-19T23:45:37.105Z,95446.09
2023-01-19T23:48:04.071Z,95445.25
2023-01-19T23:50:30.529Z,95443.56
2023-01-19T23:52:57.192Z,95445.53
2023-01-19T23:55:23.860Z,95451.84
2023-01-19T23:57:50.700Z,95451.97
